createdAt,value
2024-04-09T00:00:20.190Z,0.49
2024-04-09T00:01:21.122Z,0.49
2024-04-09T00:02:22.021Z,0.49
2024-04-09T00:03:22.978Z,0.49
2024-04-09T00:04:24.024Z,0.49
2024-04-09T00:05:24.583Z,0.49
2024-04-09T00:06:25.555Z,0.49
2024-04-09T00:07:26.397Z,0.49
2024-04-09T00:08:27.288Z,0.49
2024-04-09T00:09:28.213Z,0.49
2024-04-09T00:10:29.063Z,0.49
2024-04-09T00:11:29.977Z,0.49
2024-04-09T00:12:30.852Z,0.49
2024-04-09T00:13:31.709Z,0.49
2024-04-09T00:14:32.626Z,0.49
2024-04-09T00:15:33.660Z,0.49
2024-04-09T00:16:34.066Z,0.49
2024-04-09T00:17:35.045Z,0.49
2024-04-09T00:18:36.046Z,0.49
2024-04-09T00:19:36.518Z,0.49
2024-04-09T00:20:37.403Z,0.49
2024-04-09T00:21:38.534Z,0.49
2024-04-09T00:22:38.937Z,0.49
2024-04-09T00:23:39.819Z,0.49
2024-04-09T00:24:40.744Z,0.49
2024-04-09T00:25:41.600Z,0.49
2024-04-09T00:26:42.481Z,0.49
2024-04-09T00:27:43.666Z,0.49
2024-04-09T00:28:44.045Z,0.49
2024-04-09T00:29:44.955Z,0.49
2024-04-09T00:30:45.823Z,0.49
2024-04-09T00:31:46.702Z,0.49
2024-04-09T00:32:47.702Z,0.49
2024-04-09T00:33:48.715Z,0.49
2024-04-09T00:34:49.324Z,0.49
2024-04-09T00:35:49.802Z,0.49
2024-04-09T00:36:50.679Z,0.49
2024-04-09T00:37:51.560Z,0.49
2024-04-09T00:38:52.491Z,0.49
2024-04-09T00:39:53.339Z,0.48
2024-04-09T00:40:54.220Z,0.49
2024-04-09T00:41:55.135Z,0.48
2024-04-09T00:42:55.993Z,0.48
2024-04-09T00:43:56.880Z,0.48
2024-04-09T00:44:57.848Z,0.48
2024-04-09T00:45:58.256Z,0.48
2024-04-09T00:46:59.203Z,0.48
2024-04-09T00:48:00.195Z,0.48
2024-04-09T00:49:00.699Z,0.48
2024-04-09T00:50:01.176Z,0.48
2024-04-09T00:51:02.111Z,0.48
2024-04-09T00:52:02.997Z,0.48
2024-04-09T00:53:03.920Z,0.48
2024-04-09T00:54:04.891Z,0.48
2024-04-09T00:55:05.350Z,0.48
2024-04-09T00:56:06.236Z,0.48
2024-04-09T00:57:07.196Z,0.48
2024-04-09T00:58:08.043Z,0.48
2024-04-09T00:59:08.919Z,0.48
2024-04-09T01:00:09.866Z,0.48
2024-04-09T01:01:10.727Z,0.48
2024-04-09T01:02:11.607Z,0.48
2024-04-09T01:03:12.688Z,0.48
2024-04-09T01:04:13.249Z,0.48
2024-04-09T01:05:13.676Z,0.48
2024-04-09T01:06:14.661Z,0.49
2024-04-09T01:07:15.114Z,0.49
2024-04-09T01:08:16.020Z,0.49
2024-04-09T01:09:16.899Z,0.49
2024-04-09T01:10:17.778Z,0.49
2024-04-09T01:11:18.671Z,0.48
2024-04-09T01:12:19.714Z,0.48
2024-04-09T01:13:20.097Z,0.48
2024-04-09T01:14:20.981Z,0.48
2024-04-09T01:15:22.022Z,0.49
2024-04-09T01:16:22.388Z,0.49
2024-04-09T01:17:23.299Z,0.49
2024-04-09T01:18:24.295Z,0.48
2024-04-09T01:19:24.775Z,0.48
2024-04-09T01:20:25.700Z,0.48
2024-04-09T01:21:26.592Z,0.48
2024-04-09T01:22:27.455Z,0.48
2024-04-09T01:23:28.342Z,0.48
2024-04-09T01:24:29.246Z,0.48
2024-04-09T01:25:30.138Z,0.48
2024-04-09T01:26:31.053Z,0.48
2024-04-09T01:27:31.989Z,0.49
2024-04-09T01:28:32.907Z,0.49
2024-04-09T01:29:33.785Z,0.49
2024-04-09T01:30:35.005Z,0.49
2024-04-09T01:31:35.483Z,0.49
2024-04-09T01:32:36.423Z,0.48
2024-04-09T01:33:37.422Z,0.48
2024-04-09T01:34:37.910Z,0.48
2024-04-09T01:35:38.823Z,0.48
2024-04-09T01:36:39.733Z,0.48
2024-04-09T01:37:40.584Z,0.48
2024-04-09T01:38:41.470Z,0.48
2024-04-09T01:39:42.358Z,0.48
2024-04-09T01:40:43.267Z,0.48
2024-04-09T01:41:44.145Z,0.48
2024-04-09T01:42:45.026Z,0.48
2024-04-09T01:43:45.902Z,0.48
2024-04-09T01:44:46.783Z,0.48
2024-04-09T01:45:47.847Z,0.48
2024-04-09T01:46:48.286Z,0.48
2024-04-09T01:47:49.228Z,0.48
2024-04-09T01:48:50.197Z,0.48
2024-04-09T01:49:51.060Z,0.48
2024-04-09T01:50:51.953Z,0.48
2024-04-09T01:51:52.833Z,0.48
2024-04-09T01:52:53.715Z,0.48
2024-04-09T01:53:54.645Z,0.49
2024-04-09T01:54:55.491Z,0.49
2024-04-09T01:55:56.393Z,0.49
2024-04-09T01:56:57.324Z,0.49
2024-04-09T01:57:58.176Z,0.49
2024-04-09T02:00:47.605Z,994.44
2024-04-09T02:01:49.054Z,994.42
2024-04-09T02:02:49.452Z,994.40
2024-04-09T02:03:50.426Z,994.33
2024-04-09T02:04:50.892Z,994.25
2024-04-09T02:05:51.742Z,994.21
2024-04-09T02:06:52.637Z,994.20
2024-04-09T02:07:53.530Z,994.27
2024-04-09T02:08:54.455Z,994.32
2024-04-09T02:09:55.364Z,994.38
2024-04-09T02:10:56.248Z,994.37
2024-04-09T02:11:57.268Z,994.40
2024-04-09T02:12:57.649Z,994.39
2024-04-09T02:13:58.549Z,994.33
2024-04-09T02:16:02.963Z,994.30
2024-04-09T02:17:03.880Z,994.24
2024-04-09T02:18:04.903Z,994.22
2024-04-09T02:19:05.295Z,994.20
2024-04-09T02:20:06.181Z,994.20
2024-04-09T02:21:07.097Z,994.19
2024-04-09T02:22:07.979Z,994.18
2024-04-09T02:23:08.880Z,994.18
2024-04-09T02:24:09.808Z,994.20
2024-04-09T02:25:10.641Z,994.20
2024-04-09T02:26:11.528Z,994.18
2024-04-09T02:27:12.467Z,994.23
2024-04-09T02:28:13.389Z,994.27
2024-04-09T02:29:14.276Z,994.30
2024-04-09T02:30:15.204Z,994.35
2024-04-09T02:31:16.174Z,994.39
2024-04-09T02:32:16.915Z,994.40
2024-04-09T02:33:17.358Z,994.39
2024-04-09T02:34:18.230Z,994.37
2024-04-09T02:35:19.111Z,994.34
2024-04-09T02:36:20.060Z,994.33
2024-04-09T02:37:20.912Z,994.36
2024-04-09T02:38:21.796Z,994.40
2024-04-09T02:39:22.763Z,994.46
2024-04-09T02:40:23.653Z,994.49
2024-04-09T02:41:24.525Z,994.50
2024-04-09T02:42:25.467Z,994.52
2024-04-09T02:43:26.318Z,994.52
2024-04-09T02:44:27.212Z,994.50
2024-04-09T02:45:28.108Z,994.49
2024-04-09T02:46:28.995Z,994.48
2024-04-09T02:47:29.946Z,994.50
2024-04-09T02:48:30.902Z,994.53
2024-04-09T02:49:31.345Z,994.56
2024-04-09T02:50:32.194Z,994.61
2024-04-09T02:51:33.456Z,994.64
2024-04-09T02:52:33.973Z,994.74
2024-04-09T02:53:34.858Z,994.87
2024-04-09T02:54:35.828Z,994.92
2024-04-09T02:55:36.714Z,995.01
2024-04-09T02:56:37.588Z,995.06
2024-04-09T02:57:38.584Z,995.10
2024-04-09T02:58:38.997Z,995.11
2024-04-09T02:59:39.873Z,995.12
2024-04-09T03:00:40.791Z,995.11
2024-04-09T03:01:41.668Z,995.13
2024-04-09T03:02:42.760Z,995.12
2024-04-09T03:03:43.292Z,995.10
2024-04-09T03:04:43.698Z,995.12
2024-04-09T03:05:44.583Z,995.11
2024-04-09T03:06:45.503Z,995.13
2024-04-09T03:07:46.366Z,995.18
2024-04-09T03:08:47.249Z,995.21
2024-04-09T03:09:48.210Z,995.26
2024-04-09T03:10:49.091Z,995.32
2024-04-09T03:11:49.964Z,995.34
2024-04-09T03:12:50.897Z,995.32
2024-04-09T03:13:51.801Z,995.32
2024-04-09T03:14:52.667Z,995.31
2024-04-09T03:15:53.652Z,995.30
2024-04-09T03:16:54.218Z,995.31
2024-04-09T03:17:55.234Z,995.33
2024-04-09T03:18:55.702Z,995.35
2024-04-09T03:19:56.135Z,995.35
2024-04-09T03:20:57.033Z,995.34
2024-04-09T03:21:57.908Z,995.33
2024-04-09T03:22:58.804Z,995.35
2024-04-09T03:23:59.743Z,995.38
2024-04-09T03:25:00.655Z,995.38
2024-04-09T03:26:01.551Z,995.35
2024-04-09T03:27:02.446Z,995.33
2024-04-09T03:28:03.314Z,995.33
2024-04-09T03:29:04.189Z,995.36
2024-04-09T03:30:05.107Z,995.37
2024-04-09T03:31:05.957Z,995.40
2024-04-09T03:32:06.866Z,995.45
2024-04-09T03:33:07.930Z,995.50
2024-04-09T03:34:08.368Z,995.53
2024-04-09T03:35:09.274Z,995.52
2024-04-09T03:36:10.351Z,995.55
2024-04-09T03:37:10.745Z,995.59
2024-04-09T03:38:11.632Z,995.61
2024-04-09T03:39:12.562Z,995.66
2024-04-09T03:40:13.462Z,995.70
2024-04-09T03:41:14.345Z,995.73
2024-04-09T03:42:15.274Z,995.69
2024-04-09T03:43:16.154Z,995.66
2024-04-09T03:44:17.022Z,995.75
2024-04-09T03:45:17.941Z,995.82
2024-04-09T03:46:18.823Z,995.81
2024-04-09T03:47:19.711Z,995.74
2024-04-09T03:48:20.780Z,995.72
2024-04-09T03:49:21.839Z,995.78
2024-04-09T03:50:21.808Z,995.81
2024-04-09T03:51:22.700Z,995.75
2024-04-09T03:52:23.576Z,995.73
2024-04-09T03:53:24.472Z,995.79
2024-04-09T03:54:25.381Z,995.85
2024-04-09T03:55:26.235Z,995.88
2024-04-09T03:56:27.135Z,995.98
2024-04-09T03:57:28.026Z,996.04
2024-04-09T03:58:28.913Z,996.05
2024-04-09T03:59:29.794Z,996.01
2024-04-09T04:00:30.701Z,996.03
2024-04-09T04:01:31.644Z,996.11
2024-04-09T04:02:32.121Z,996.12
2024-04-09T04:03:33.089Z,996.15
2024-04-09T04:04:33.547Z,996.18
2024-04-09T04:05:34.414Z,996.25
2024-04-09T04:06:35.322Z,996.29
2024-04-09T04:07:36.187Z,996.34
2024-04-09T04:08:37.103Z,996.40
2024-04-09T04:09:38.030Z,996.41
2024-04-09T04:10:38.902Z,996.47
2024-04-09T04:11:39.811Z,996.54
2024-04-09T04:12:40.688Z,996.57
2024-04-09T04:13:41.577Z,996.57
2024-04-09T04:14:42.451Z,996.60
2024-04-09T04:15:43.452Z,996.67
2024-04-09T04:16:43.892Z,996.75
2024-04-09T04:17:44.770Z,996.79
2024-04-09T04:18:45.913Z,996.80
2024-04-09T04:19:46.456Z,996.79
2024-04-09T04:20:47.351Z,996.82
2024-04-09T04:21:48.392Z,996.84
2024-04-09T04:22:48.816Z,996.87
2024-04-09T04:23:49.718Z,996.92
2024-04-09T04:24:50.599Z,996.98
2024-04-09T04:25:51.481Z,997.02
2024-04-09T04:26:52.385Z,997.04
2024-04-09T04:27:53.260Z,997.04
2024-04-09T04:28:54.170Z,997.05
2024-04-09T04:29:55.048Z,997.09
2024-04-09T04:30:55.919Z,997.13
2024-04-09T04:31:56.823Z,997.13
2024-04-09T04:32:57.913Z,997.15
2024-04-09T04:33:58.490Z,997.18
2024-04-09T04:34:58.973Z,997.20
2024-04-09T04:35:59.920Z,997.19
2024-04-09T04:37:00.777Z,997.14
2024-04-09T04:38:01.662Z,997.11
2024-04-09T04:39:02.609Z,997.10
2024-04-09T04:40:03.549Z,997.10
2024-04-09T04:41:04.400Z,997.10
2024-04-09T04:42:05.304Z,997.07
2024-04-09T04:43:06.166Z,997.08
2024-04-09T04:44:07.083Z,997.09
2024-04-09T04:45:07.987Z,997.06
2024-04-09T04:46:09.113Z,997.03
2024-04-09T04:47:09.637Z,997.02
2024-04-09T04:48:10.810Z,997.00
2024-04-09T04:49:11.640Z,996.96
2024-04-09T04:50:12.084Z,996.95
2024-04-09T04:51:13.037Z,997.00
2024-04-09T04:52:13.914Z,997.05
2024-04-09T04:53:14.788Z,997.05
2024-04-09T04:54:15.776Z,997.04
2024-04-09T04:55:16.631Z,997.07
2024-04-09T04:56:17.513Z,997.08
2024-04-09T04:57:18.507Z,997.05
2024-04-09T04:58:19.338Z,997.01
2024-04-09T04:59:20.237Z,997.00
2024-04-09T05:00:21.163Z,996.97
2024-04-09T05:01:22.050Z,996.82
2024-04-09T05:02:22.940Z,996.65
2024-04-09T05:03:24.045Z,996.68
2024-04-09T05:04:24.865Z,996.81
2024-04-09T05:05:25.311Z,996.69
2024-04-09T05:06:26.238Z,996.52
2024-04-09T05:07:27.125Z,996.69
2024-04-09T05:08:28.014Z,996.87
2024-04-09T05:09:28.946Z,996.88
2024-04-09T05:10:29.795Z,996.80
2024-04-09T05:11:30.753Z,996.97
2024-04-09T05:12:31.742Z,996.96
2024-04-09T05:13:32.161Z,996.75
2024-04-09T05:14:33.040Z,996.77
2024-04-09T05:15:34.051Z,996.52
2024-04-09T05:16:34.438Z,996.30
2024-04-09T05:17:35.410Z,996.58
2024-04-09T05:18:36.475Z,996.72
2024-04-09T05:19:37.062Z,996.70
2024-04-09T05:20:38.087Z,996.71
2024-04-09T05:21:38.677Z,996.83
2024-04-09T05:22:39.046Z,996.84
2024-04-09T05:23:39.924Z,996.81
2024-04-09T05:24:40.846Z,996.83
2024-04-09T05:25:41.702Z,996.90
2024-04-09T05:26:42.599Z,996.98
2024-04-09T05:27:43.523Z,996.99
2024-04-09T05:28:44.406Z,997.00
2024-04-09T05:29:45.279Z,997.01
2024-04-09T05:30:46.304Z,997.00
2024-04-09T05:31:47.021Z,996.98
2024-04-09T05:32:47.489Z,997.03
2024-04-09T05:33:48.423Z,997.06
2024-04-09T05:34:49.293Z,997.13
2024-04-09T05:35:50.160Z,997.18
2024-04-09T05:36:51.221Z,997.26
2024-04-09T05:37:51.762Z,997.33
2024-04-09T05:38:52.456Z,997.38
2024-04-09T05:39:53.332Z,997.38
2024-04-09T05:40:54.254Z,997.38
2024-04-09T05:41:55.160Z,997.35
2024-04-09T05:42:56.069Z,997.34
2024-04-09T05:43:56.940Z,997.34
2024-04-09T05:44:57.822Z,997.32
2024-04-09T05:45:58.704Z,997.31
2024-04-09T05:46:59.604Z,997.29
2024-04-09T05:48:00.724Z,997.29
2024-04-09T05:49:01.450Z,997.27
2024-04-09T05:50:02.012Z,997.22
2024-04-09T05:51:02.870Z,997.16
2024-04-09T05:52:03.764Z,997.14
2024-04-09T05:53:04.640Z,997.20
2024-04-09T05:54:05.559Z,997.19
2024-04-09T05:55:06.583Z,997.27
2024-04-09T05:56:07.046Z,997.36
2024-04-09T05:57:07.992Z,997.43
2024-04-09T05:58:08.855Z,997.49
2024-04-09T05:59:09.753Z,997.58
2024-04-09T06:00:10.717Z,997.63
2024-04-09T06:01:11.242Z,997.73
2024-04-09T06:02:11.735Z,997.79
2024-04-09T06:03:12.659Z,997.78
2024-04-09T06:04:16.838Z,997.78
2024-04-09T06:05:14.536Z,997.77
2024-04-09T06:06:15.422Z,997.77
2024-04-09T06:07:16.306Z,997.76
2024-04-09T06:08:17.185Z,997.74
2024-04-09T06:09:18.119Z,997.76
2024-04-09T06:10:18.985Z,997.78
2024-04-09T06:11:19.905Z,997.75
2024-04-09T06:12:20.828Z,997.75
2024-04-09T06:13:21.663Z,997.80
2024-04-09T06:14:22.545Z,997.84
2024-04-09T06:15:23.497Z,997.82
2024-04-09T06:16:24.412Z,997.88
2024-04-09T06:17:25.359Z,998.16
2024-04-09T06:18:26.418Z,998.43
2024-04-09T06:19:27.001Z,998.58
2024-04-09T06:20:27.461Z,998.60
2024-04-09T06:21:28.350Z,998.67
2024-04-09T06:22:29.228Z,998.77
2024-04-09T06:23:30.106Z,998.82
2024-04-09T06:24:31.107Z,998.81
2024-04-09T06:25:33.066Z,998.78
2024-04-09T06:26:32.931Z,998.79
2024-04-09T06:27:33.926Z,998.83
2024-04-09T06:28:34.313Z,998.83
2024-04-09T06:29:35.196Z,998.79
2024-04-09T06:30:36.116Z,998.65
2024-04-09T06:31:36.962Z,998.45
2024-04-09T06:32:37.938Z,998.25
2024-04-09T06:33:38.928Z,998.06
2024-04-09T06:34:39.402Z,997.75
2024-04-09T06:35:40.264Z,997.32
2024-04-09T06:36:41.191Z,997.13
2024-04-09T06:37:42.585Z,997.27
2024-04-09T06:38:42.966Z,997.55
2024-04-09T06:39:43.954Z,997.67
2024-04-09T06:40:44.830Z,997.58
2024-04-09T06:41:45.704Z,997.47
2024-04-09T06:42:46.673Z,997.35
2024-04-09T06:43:47.527Z,997.35
2024-04-09T06:44:48.417Z,997.40
2024-04-09T06:45:49.375Z,997.41
2024-04-09T06:46:50.239Z,997.44
2024-04-09T06:47:51.235Z,997.50
2024-04-09T06:48:52.233Z,997.64
2024-04-09T06:49:52.673Z,997.77
2024-04-09T06:50:53.562Z,997.88
2024-04-09T06:51:54.463Z,997.93
2024-04-09T06:52:55.330Z,998.01
2024-04-09T06:53:56.226Z,998.07
2024-04-09T06:54:57.113Z,998.13
2024-04-09T06:55:57.975Z,998.15
2024-04-09T06:56:58.895Z,998.19
2024-04-09T06:57:59.761Z,998.17
2024-04-09T06:59:00.655Z,998.36
2024-04-09T07:00:01.568Z,998.55
2024-04-09T07:01:02.511Z,998.63
2024-04-09T07:02:03.446Z,998.73
2024-04-09T07:03:04.363Z,998.85
2024-04-09T07:04:05.811Z,998.97
2024-04-09T07:05:05.984Z,999.02
2024-04-09T07:06:06.900Z,999.05
2024-04-09T07:07:07.773Z,999.06
2024-04-09T07:08:08.674Z,999.08
2024-04-09T07:09:09.672Z,999.07
2024-04-09T07:10:10.121Z,999.16
2024-04-09T07:11:11.013Z,999.18
2024-04-09T07:12:11.989Z,999.19
2024-04-09T07:13:12.851Z,999.20
2024-04-09T07:14:13.733Z,999.13
2024-04-09T07:15:14.638Z,999.02
2024-04-09T07:16:15.511Z,998.94
2024-04-09T07:17:16.411Z,998.87
2024-04-09T07:18:17.382Z,998.77
2024-04-09T07:19:17.765Z,998.70
2024-04-09T07:20:18.649Z,998.52
2024-04-09T07:21:19.722Z,998.35
2024-04-09T07:22:20.105Z,998.30
2024-04-09T07:23:20.988Z,998.19
2024-04-09T07:24:21.896Z,998.05
2024-04-09T07:25:22.770Z,997.95
2024-04-09T07:26:23.637Z,997.93
2024-04-09T07:27:24.558Z,997.97
2024-04-09T07:28:25.473Z,998.04
2024-04-09T07:29:26.360Z,998.15
2024-04-09T07:30:27.325Z,998.20
2024-04-09T07:31:28.220Z,998.31
2024-04-09T07:32:29.217Z,998.46
2024-04-09T07:33:30.121Z,998.52
2024-04-09T07:34:30.997Z,998.49
2024-04-09T07:35:31.882Z,998.44
2024-04-09T07:36:32.908Z,998.35
2024-04-09T07:37:33.765Z,998.35
2024-04-09T07:38:34.762Z,998.27
2024-04-09T07:39:35.517Z,998.26
2024-04-09T07:40:36.380Z,998.25
2024-04-09T07:41:37.264Z,998.34
2024-04-09T07:42:38.164Z,998.38
2024-04-09T07:43:40.959Z,998.40
2024-04-09T07:44:39.566Z,998.62
2024-04-09T07:45:40.484Z,998.55
2024-04-09T07:46:41.347Z,998.59
2024-04-09T07:47:42.352Z,998.69
2024-04-09T07:48:42.930Z,998.70
2024-04-09T07:49:43.290Z,998.72
2024-04-09T07:50:44.217Z,998.72
2024-04-09T07:51:45.110Z,998.74
2024-04-09T07:52:45.974Z,998.70
2024-04-09T07:53:46.878Z,998.74
2024-04-09T07:55:53.438Z,998.83
2024-04-09T07:56:54.339Z,998.86
2024-04-09T07:57:55.236Z,998.86
2024-04-09T07:58:56.138Z,999.01
2024-04-09T07:59:57.021Z,999.05
2024-04-09T08:00:58.085Z,999.08
2024-04-09T08:01:58.499Z,999.10
2024-04-09T08:02:59.696Z,999.13
2024-04-09T08:04:00.310Z,999.15
2024-04-09T08:05:00.915Z,999.13
2024-04-09T08:06:01.938Z,999.23
2024-04-09T08:07:02.419Z,999.15
2024-04-09T08:08:03.253Z,999.22
2024-04-09T08:09:03.963Z,999.16
2024-04-09T08:10:04.637Z,999.19
2024-04-09T08:11:05.271Z,999.22
2024-04-09T08:12:05.786Z,999.28
2024-04-09T08:13:06.361Z,999.25
2024-04-09T08:14:06.809Z,999.22
2024-04-09T08:15:07.707Z,999.20
2024-04-09T08:16:08.579Z,999.16
2024-04-09T08:17:09.461Z,999.22
2024-04-09T08:18:10.437Z,999.27
2024-04-09T08:19:11.034Z,999.29
2024-04-09T08:20:11.672Z,999.35
2024-04-09T08:21:12.230Z,999.27
2024-04-09T08:22:13.123Z,999.31
2024-04-09T08:23:13.986Z,999.35
2024-04-09T08:24:14.913Z,999.39
2024-04-09T08:25:15.790Z,999.42
2024-04-09T08:26:16.665Z,999.48
2024-04-09T08:27:17.608Z,999.46
2024-04-09T08:28:18.489Z,999.49
2024-04-09T08:29:19.661Z,999.52
2024-04-09T08:30:20.093Z,999.58
2024-04-09T08:31:20.991Z,999.70
2024-04-09T08:32:21.956Z,999.81
2024-04-09T08:33:22.962Z,999.89
2024-04-09T08:34:23.897Z,999.93
2024-04-09T08:35:23.980Z,999.99
2024-04-09T08:36:24.924Z,1000.04
2024-04-09T08:37:25.917Z,1000.15
2024-04-09T08:38:26.293Z,1000.10
2024-04-09T08:39:26.904Z,1000.13
2024-04-09T08:40:27.979Z,1000.12
2024-04-09T08:41:28.380Z,1000.09
2024-04-09T08:42:29.401Z,1000.00
2024-04-09T08:43:29.869Z,999.99
2024-04-09T08:44:30.759Z,999.91
2024-04-09T08:45:31.708Z,999.89
2024-04-09T08:46:32.785Z,999.85
2024-04-09T08:47:33.404Z,999.81
2024-04-09T08:48:34.415Z,999.80
2024-04-09T08:49:34.910Z,999.77
2024-04-09T08:50:35.427Z,999.70
2024-04-09T08:51:36.245Z,999.67
2024-04-09T08:52:36.906Z,999.51
2024-04-09T08:53:37.292Z,999.35
2024-04-09T08:54:38.282Z,999.32
2024-04-09T08:55:38.730Z,999.34
2024-04-09T08:56:39.635Z,999.42
2024-04-09T08:57:40.568Z,999.49
2024-04-09T08:58:41.461Z,999.55
2024-04-09T08:59:42.367Z,999.54
2024-04-09T09:00:43.418Z,999.52
2024-04-09T09:01:43.889Z,999.56
2024-04-09T09:02:44.769Z,999.66
2024-04-09T09:03:45.763Z,999.69
2024-04-09T09:04:46.302Z,999.75
2024-04-09T09:05:46.727Z,999.79
2024-04-09T09:06:47.711Z,999.82
2024-04-09T09:07:48.213Z,999.75
2024-04-09T09:08:49.048Z,999.72
2024-04-09T09:09:50.522Z,999.85
2024-04-09T09:10:50.967Z,999.98
2024-04-09T09:11:51.818Z,1000.09
2024-04-09T09:12:52.783Z,1000.15
2024-04-09T09:13:53.661Z,1000.18
2024-04-09T09:14:54.568Z,1000.21
2024-04-09T09:15:55.498Z,1000.26
2024-04-09T09:16:56.390Z,1000.27
2024-04-09T09:17:57.354Z,1000.30
2024-04-09T09:18:58.291Z,1000.26
2024-04-09T09:20:02.065Z,1000.28
2024-04-09T09:21:01.002Z,1000.16
2024-04-09T09:22:00.876Z,1000.22
2024-04-09T09:23:01.792Z,1000.23
2024-04-09T09:24:02.774Z,1000.15
2024-04-09T09:25:03.666Z,1000.14
2024-04-09T09:26:04.549Z,1000.19
2024-04-09T09:27:05.456Z,1000.28
2024-04-09T09:28:06.329Z,1000.33
2024-04-09T09:29:07.213Z,1000.39
2024-04-09T09:30:08.185Z,1000.42
2024-04-09T09:31:09.093Z,1000.43
2024-04-09T09:32:10.113Z,1000.42
2024-04-09T09:33:10.573Z,1000.34
2024-04-09T09:34:11.086Z,1000.29
2024-04-09T09:35:11.982Z,1000.28
2024-04-09T09:36:12.914Z,1000.26
2024-04-09T09:37:13.797Z,1000.22
2024-04-09T09:38:14.685Z,1000.21
2024-04-09T09:39:15.615Z,1000.22
2024-04-09T09:40:16.551Z,1000.21
2024-04-09T09:41:17.451Z,1000.20
2024-04-09T09:42:18.346Z,1000.25
2024-04-09T09:43:19.228Z,1000.35
2024-04-09T09:44:20.123Z,1000.41
2024-04-09T09:45:21.129Z,1000.36
2024-04-09T09:46:21.986Z,1000.42
2024-04-09T09:47:22.915Z,1000.44
2024-04-09T09:48:23.892Z,1000.47
2024-04-09T09:49:24.352Z,1000.51
2024-04-09T09:50:24.852Z,1000.56
2024-04-09T09:51:25.773Z,1000.63
2024-04-09T09:52:26.642Z,1000.73
2024-04-09T09:53:28.002Z,1000.85
2024-04-09T09:54:28.406Z,1000.91
2024-04-09T09:55:29.399Z,1000.94
2024-04-09T09:56:29.447Z,1000.91
2024-04-09T09:57:30.387Z,1000.92
2024-04-09T09:58:31.231Z,1000.94
2024-04-09T09:59:32.131Z,1000.95
2024-04-09T10:00:33.099Z,1000.97
2024-04-09T10:01:34.087Z,1001.03
2024-04-09T10:02:35.718Z,1001.09
2024-04-09T10:03:36.126Z,1001.14
2024-04-09T10:04:36.666Z,1001.12
2024-04-09T10:05:37.230Z,1001.18
2024-04-09T10:06:37.730Z,1001.21
2024-04-09T10:07:38.579Z,1001.24
2024-04-09T10:08:39.475Z,1001.28
2024-04-09T10:09:40.483Z,1001.31
2024-04-09T10:10:40.935Z,1001.38
2024-04-09T10:11:41.851Z,1001.44
2024-04-09T10:12:42.764Z,1001.43
2024-04-09T10:13:43.648Z,1001.53
2024-04-09T10:14:44.557Z,1001.63
2024-04-09T10:15:45.721Z,1001.70
2024-04-09T10:16:46.207Z,1001.72
2024-04-09T10:17:49.866Z,1001.77
2024-04-09T10:18:47.894Z,1001.76
2024-04-09T10:19:48.347Z,1001.85
2024-04-09T10:20:49.250Z,1001.82
2024-04-09T10:21:50.222Z,1001.84
2024-04-09T10:22:51.111Z,1001.88
2024-04-09T10:23:52.007Z,1001.90
2024-04-09T10:24:52.919Z,1001.88
2024-04-09T10:25:53.819Z,1001.90
2024-04-09T10:26:54.729Z,1001.92
2024-04-09T10:27:55.595Z,1001.97
2024-04-09T10:28:56.483Z,1001.98
2024-04-09T10:29:57.374Z,1002.01
2024-04-09T10:30:58.275Z,1001.98
2024-04-09T10:31:59.176Z,1002.00
2024-04-09T10:33:00.287Z,1002.00
2024-04-09T10:34:01.007Z,1001.98
2024-04-09T10:35:01.546Z,1001.99
2024-04-09T10:36:03.177Z,1002.00
2024-04-09T10:37:02.581Z,1002.04
2024-04-09T10:38:03.486Z,1002.04
2024-04-09T10:39:04.622Z,1002.10
2024-04-09T10:40:05.009Z,1002.12
2024-04-09T10:41:05.917Z,1002.17
2024-04-09T10:42:06.852Z,1002.15
2024-04-09T10:43:07.719Z,1002.16
2024-04-09T10:44:08.610Z,1002.07
2024-04-09T10:45:09.549Z,1002.00
2024-04-09T10:47:11.285Z,1001.89
2024-04-09T10:48:12.300Z,1001.87
2024-04-09T10:49:12.684Z,1001.85
2024-04-09T10:50:13.574Z,1001.83
2024-04-09T10:51:14.538Z,1001.79
2024-04-09T10:52:15.393Z,1001.75
2024-04-09T10:53:16.288Z,1001.72
2024-04-09T10:54:17.211Z,1001.82
2024-04-09T10:55:18.102Z,1001.81
2024-04-09T10:56:19.013Z,1001.77
2024-04-09T10:57:21.618Z,1001.79
2024-04-09T10:58:20.526Z,1001.84
2024-04-09T10:59:21.422Z,1001.85
2024-04-09T11:00:22.401Z,1001.86
2024-04-09T11:01:23.303Z,1001.86
2024-04-09T11:02:24.212Z,1001.82
2024-04-09T11:03:25.280Z,1001.81
2024-04-09T11:04:25.864Z,1001.72
2024-04-09T11:05:26.803Z,1001.75
2024-04-09T11:06:27.765Z,1001.78
2024-04-09T11:07:28.620Z,1001.81
2024-04-09T11:08:29.943Z,1001.83
2024-04-09T11:09:30.416Z,1001.82
2024-04-09T11:10:31.322Z,1001.79
2024-04-09T11:11:32.373Z,1001.78
2024-04-09T11:12:32.873Z,1001.81
2024-04-09T11:13:33.541Z,1001.83
2024-04-09T11:14:33.979Z,1001.91
2024-04-09T11:15:34.940Z,1001.94
2024-04-09T11:16:35.846Z,1001.96
2024-04-09T11:17:36.826Z,1001.97
2024-04-09T11:18:37.788Z,1001.98
2024-04-09T11:19:38.722Z,1001.93
2024-04-09T11:20:39.600Z,1001.95
2024-04-09T11:21:40.575Z,1001.96
2024-04-09T11:22:40.997Z,1002.04
2024-04-09T11:23:41.891Z,1002.07
2024-04-09T11:24:42.955Z,1002.11
2024-04-09T11:25:43.400Z,1002.14
2024-04-09T11:26:44.856Z,1002.13
2024-04-09T11:27:45.341Z,1002.11
2024-04-09T11:28:46.210Z,1002.09
2024-04-09T11:29:47.094Z,1002.04
2024-04-09T11:30:48.123Z,1002.05
2024-04-09T11:31:48.609Z,1002.02
2024-04-09T11:32:49.586Z,1002.00
2024-04-09T11:33:50.110Z,1002.02
2024-04-09T11:34:50.777Z,1002.00
2024-04-09T11:35:51.241Z,1002.01
2024-04-09T11:36:52.221Z,1002.08
2024-04-09T11:37:53.086Z,1002.11
2024-04-09T11:38:53.981Z,1002.10
2024-04-09T11:39:54.998Z,1002.11
2024-04-09T11:40:55.874Z,1002.11
2024-04-09T11:41:56.789Z,1002.17
2024-04-09T11:42:57.678Z,1002.06
2024-04-09T11:43:58.587Z,1002.11
2024-04-09T11:44:59.494Z,1002.07
2024-04-09T11:46:00.403Z,1002.09
2024-04-09T11:47:01.399Z,1002.18
2024-04-09T11:48:02.023Z,1002.13
2024-04-09T11:49:03.283Z,1002.08
2024-04-09T11:50:03.300Z,1002.09
2024-04-09T11:51:04.227Z,1002.10
2024-04-09T11:52:05.117Z,1002.13
2024-04-09T11:53:05.995Z,1002.16
2024-04-09T11:54:06.923Z,1002.22
2024-04-09T11:55:10.598Z,1002.23
2024-04-09T11:56:08.615Z,1002.24
2024-04-09T11:57:09.607Z,1002.20
2024-04-09T11:58:10.470Z,1002.23
2024-04-09T11:59:11.353Z,1002.16
2024-04-09T12:00:12.297Z,1002.15
2024-04-09T12:01:13.431Z,1002.09
2024-04-09T12:02:14.230Z,1002.13
2024-04-09T12:03:14.687Z,1002.08
2024-04-09T12:04:15.745Z,1002.11
2024-04-09T12:05:16.263Z,1002.09
2024-04-09T12:06:16.752Z,1002.08
2024-04-09T12:07:17.630Z,1002.09
2024-04-09T12:08:18.532Z,1002.11
2024-04-09T12:09:19.429Z,1002.11
2024-04-09T12:10:20.329Z,1002.17
2024-04-09T12:11:22.601Z,1002.19
2024-04-09T12:12:22.094Z,1002.16
2024-04-09T12:13:22.958Z,1002.12
2024-04-09T12:14:23.847Z,1002.19
2024-04-09T12:15:24.738Z,1002.21
2024-04-09T12:16:25.625Z,1002.18
2024-04-09T12:17:26.582Z,1002.23
2024-04-09T12:18:27.586Z,1002.28
2024-04-09T12:19:28.068Z,1002.18
2024-04-09T12:20:28.955Z,1002.27
2024-04-09T12:21:29.876Z,1002.31
2024-04-09T12:22:30.745Z,1002.30
2024-04-09T12:23:31.630Z,1002.32
2024-04-09T12:24:32.552Z,1002.24
2024-04-09T12:25:33.445Z,1002.22
2024-04-09T12:26:34.320Z,1002.21
2024-04-09T12:27:35.301Z,1002.22
2024-04-09T12:28:36.185Z,1002.23
2024-04-09T12:29:37.062Z,1002.28
2024-04-09T12:30:38.018Z,1002.25
2024-04-09T12:31:38.873Z,1002.22
2024-04-09T12:32:39.875Z,1002.27
2024-04-09T12:33:40.487Z,1002.26
2024-04-09T12:34:41.038Z,1002.29
2024-04-09T12:35:41.547Z,1002.35
2024-04-09T12:36:42.596Z,1002.34
2024-04-09T12:37:43.033Z,1002.31
2024-04-09T12:38:43.917Z,1002.33
2024-04-09T12:39:44.946Z,1002.32
2024-04-09T12:40:45.430Z,1002.32
2024-04-09T12:41:46.292Z,1002.32
2024-04-09T12:42:47.518Z,1002.37
2024-04-09T12:43:47.951Z,1002.38
2024-04-09T12:44:48.839Z,1002.45